createdAt,value
2023-05-11T00:02:05.869Z,35.42
2023-05-11T00:04:33.755Z,35.65
2023-05-11T00:07:01.575Z,33.53
2023-05-11T00:09:30.900Z,33.85
2023-05-11T00:11:58.656Z,35.60
2023-05-11T00:14:26.828Z,35.53
2023-05-11T00:16:54.578Z,35.05
2023-05-11T00:19:22.363Z,34.60
2023-05-11T00:21:50.157Z,34.83
2023-05-11T00:24:17.873Z,36.05
2023-05-11T00:26:46.961Z,33.95
2023-05-11T00:31:42.306Z,34.20
2023-05-11T00:34:10.067Z,34.58
2023-05-11T00:36:41.152Z,34.72
2023-05-11T00:39:09.179Z,34.38
2023-05-11T00:41:36.955Z,35.03
2023-05-11T00:44:06.369Z,35.63
2023-05-11T00:46:34.706Z,35.20
2023-05-11T00:49:02.490Z,35.65
2023-05-11T00:51:30.252Z,36.08
2023-05-11T00:53:58.248Z,35.92
2023-05-11T00:56:26.033Z,36.35
2023-05-11T00:58:53.938Z,37.30
2023-05-11T01:01:24.613Z,37.85
2023-05-11T01:03:52.389Z,36.00
2023-05-11T01:06:26.552Z,35.90
2023-05-11T01:08:58.211Z,36.35
2023-05-11T01:11:32.031Z,34.83
2023-05-11T01:14:05.785Z,36.25
2023-05-11T01:16:37.002Z,37.38
2023-05-11T01:19:20.399Z,37.55
2023-05-11T01:21:50.140Z,35.30
2023-05-11T01:24:30.037Z,38.17
2023-05-11T01:27:08.404Z,36.97
2023-05-11T01:30:31.573Z,36.85
2023-05-11T01:33:05.113Z,36.13
2023-05-11T01:35:34.376Z,35.88
2023-05-11T01:38:02.605Z,33.92
2023-05-11T01:40:33.801Z,37.67
2023-05-11T01:43:03.488Z,36.20
2023-05-11T01:45:33.849Z,35.80
2023-05-11T01:48:04.772Z,36.13
2023-05-11T01:50:33.095Z,36.85
2023-05-11T01:53:01.430Z,36.05
2023-05-11T01:55:30.749Z,36.42
2023-05-11T01:57:58.900Z,37.05
2023-05-11T02:00:27.236Z,35.08
2023-05-11T02:02:56.250Z,36.97
2023-05-11T02:05:25.656Z,36.22
2023-05-11T02:07:54.578Z,36.50
2023-05-11T02:10:25.623Z,35.58
2023-05-11T02:12:54.371Z,36.10
2023-05-11T02:15:23.062Z,35.17
2023-05-11T02:17:51.883Z,33.85
2023-05-11T02:20:21.053Z,34.47
2023-05-11T02:22:50.733Z,34.38
2023-05-11T02:25:19.415Z,34.55
2023-05-11T02:27:47.355Z,36.25
2023-05-11T02:30:15.418Z,34.83
2023-05-11T02:32:47.900Z,36.20
2023-05-11T02:35:19.932Z,34.65
2023-05-11T02:37:50.523Z,33.72
2023-05-11T02:40:20.495Z,32.75
2023-05-11T02:42:50.568Z,34.83
2023-05-11T02:45:20.825Z,34.35
2023-05-11T02:47:53.720Z,35.55
2023-05-11T02:50:24.288Z,36.13
2023-05-11T02:52:56.546Z,36.40
2023-05-11T02:55:24.896Z,36.13
2023-05-11T02:57:52.875Z,36.65
2023-05-11T03:00:21.247Z,36.80
2023-05-11T03:02:49.541Z,36.40
2023-05-11T03:05:17.870Z,34.08
2023-05-11T03:07:45.853Z,36.73
2023-05-11T03:10:15.751Z,36.05
2023-05-11T03:12:43.815Z,35.75
2023-05-11T03:15:12.797Z,34.67
2023-05-11T03:17:41.258Z,34.75
2023-05-11T03:20:10.070Z,34.88
2023-05-11T03:22:38.038Z,34.05
2023-05-11T03:25:07.178Z,33.40
2023-05-11T03:30:04.629Z,33.53
2023-05-11T03:32:32.352Z,33.55
2023-05-11T03:35:00.183Z,35.05
2023-05-11T03:37:28.267Z,34.03
2023-05-11T03:39:59.415Z,33.70
2023-05-11T03:42:28.396Z,33.88
2023-05-11T03:44:59.839Z,34.03
2023-05-11T03:47:28.654Z,32.63
2023-05-11T03:49:57.349Z,34.30
2023-05-11T03:52:25.598Z,31.05
2023-05-11T03:54:53.349Z,32.80
2023-05-11T03:57:21.347Z,30.63
2023-05-11T03:59:49.135Z,31.70
2023-05-11T04:02:18.351Z,31.42
2023-05-11T04:07:13.924Z,30.30
2023-05-11T04:09:41.718Z,32.22
2023-05-11T04:12:09.595Z,30.45
2023-05-11T04:14:37.442Z,30.85
2023-05-11T04:17:05.231Z,32.55
2023-05-11T04:19:34.339Z,32.60
2023-05-11T04:24:29.758Z,33.30
2023-05-11T04:27:00.182Z,33.35
2023-05-11T04:29:27.975Z,33.13
2023-05-11T04:31:56.088Z,33.47
2023-05-11T04:34:23.939Z,33.15
2023-05-11T04:36:53.060Z,33.58
2023-05-11T04:39:21.214Z,33.42
2023-05-11T04:41:49.139Z,33.33
2023-05-11T04:44:16.890Z,33.17
2023-05-11T04:46:44.654Z,32.08
2023-05-11T04:49:12.452Z,32.10
2023-05-11T04:51:40.534Z,33.95
2023-05-11T04:54:10.337Z,31.77
2023-05-11T04:56:40.548Z,33.80
2023-05-11T04:59:08.383Z,33.50
2023-05-11T05:01:36.334Z,35.08
2023-05-11T05:04:04.541Z,33.22
2023-05-11T05:06:32.847Z,32.88
2023-05-11T05:09:00.810Z,33.63
2023-05-11T05:11:29.960Z,34.63
2023-05-11T05:16:25.285Z,33.70
2023-05-11T05:18:53.056Z,33.58
2023-05-11T05:21:20.884Z,32.70
2023-05-11T05:23:48.646Z,35.00
2023-05-11T05:26:16.381Z,35.25
2023-05-11T05:28:45.447Z,34.35
2023-05-11T05:33:40.837Z,32.75
2023-05-11T05:36:10.037Z,34.03
2023-05-11T05:38:37.801Z,33.03
2023-05-11T05:41:05.754Z,33.35
2023-05-11T05:43:33.489Z,33.40
2023-05-11T05:46:02.581Z,34.00
2023-05-11T05:51:00.152Z,31.77
2023-05-11T05:53:27.970Z,32.92
2023-05-11T05:55:55.769Z,34.60
2023-05-11T05:58:23.601Z,33.33
2023-05-11T06:00:52.434Z,34.00
2023-05-11T06:03:21.779Z,35.13
2023-05-11T06:05:49.674Z,34.20
2023-05-11T06:08:17.627Z,34.30
2023-05-11T06:10:45.419Z,35.22
2023-05-11T06:13:13.284Z,32.90
2023-05-11T06:15:43.366Z,32.35
2023-05-11T06:18:11.969Z,33.63
2023-05-11T06:20:41.117Z,32.83
2023-05-11T06:23:09.024Z,31.25
2023-05-11T06:25:39.851Z,31.15
2023-05-11T06:28:08.026Z,32.25
2023-05-11T06:30:35.876Z,30.50
2023-05-11T06:33:03.703Z,32.55
2023-05-11T06:35:31.526Z,30.60
2023-05-11T06:38:01.850Z,34.88
2023-05-11T06:40:29.692Z,35.33
2023-05-11T06:42:57.545Z,35.63
2023-05-11T06:45:25.404Z,34.55
2023-05-11T06:47:53.211Z,33.80
2023-05-11T06:50:21.628Z,32.42
2023-05-11T06:52:49.736Z,31.52
2023-05-11T06:55:18.856Z,30.98
2023-05-11T06:57:46.671Z,30.38
2023-05-11T07:00:18.265Z,29.65
2023-05-11T07:02:46.257Z,30.33
2023-05-11T07:05:14.110Z,30.33
2023-05-11T07:07:42.057Z,29.92
2023-05-11T07:10:11.011Z,29.90
2023-05-11T07:17:35.811Z,29.05
2023-05-11T07:20:03.827Z,30.35
2023-05-11T07:22:31.680Z,30.08
2023-05-11T07:24:59.516Z,30.48
2023-05-11T07:27:27.507Z,29.85
2023-05-11T07:29:56.636Z,30.67
2023-05-11T07:32:24.469Z,31.52
2023-05-11T07:34:52.244Z,29.45
2023-05-11T07:37:20.131Z,29.80
2023-05-11T07:39:47.923Z,28.65
2023-05-11T07:42:15.765Z,27.98
2023-05-11T07:44:43.507Z,27.52
2023-05-11T07:47:13.355Z,27.73
2023-05-11T07:49:43.858Z,27.67
2023-05-11T07:52:12.168Z,29.13
2023-05-11T07:54:40.372Z,29.92
2023-05-11T07:57:08.361Z,30.30
2023-05-11T07:59:36.553Z,28.50
2023-05-11T08:02:04.620Z,30.95
2023-05-11T08:04:33.803Z,31.67
2023-05-11T08:07:01.644Z,30.55
2023-05-11T08:09:29.457Z,32.20
2023-05-11T08:11:57.465Z,29.40
2023-05-11T08:14:26.223Z,29.75
2023-05-11T08:16:54.091Z,30.17
2023-05-11T08:19:21.887Z,30.52
2023-05-11T08:21:51.036Z,30.48
2023-05-11T08:24:18.864Z,29.85
2023-05-11T08:26:47.204Z,29.10
2023-05-11T08:29:15.047Z,28.05
2023-05-11T08:31:42.874Z,28.02
2023-05-11T08:36:41.855Z,28.98
2023-05-11T08:39:11.056Z,29.75
2023-05-11T08:41:38.879Z,27.67
2023-05-11T08:44:07.370Z,27.73
2023-05-11T08:46:37.218Z,28.02
2023-05-11T08:49:05.011Z,27.83
2023-05-11T08:51:33.023Z,25.35
2023-05-11T08:54:00.810Z,27.17
2023-05-11T08:56:30.867Z,27.65
2023-05-11T08:58:58.895Z,26.17
2023-05-11T09:01:29.502Z,27.80
2023-05-11T09:03:58.262Z,28.95
2023-05-11T09:06:26.497Z,28.75
2023-05-11T09:08:54.354Z,28.38
2023-05-11T09:11:22.769Z,27.25
2023-05-11T09:13:52.154Z,26.88
2023-05-11T09:16:28.283Z,26.42
2023-05-11T09:19:04.482Z,29.88
2023-05-11T09:21:32.816Z,26.92
2023-05-11T09:24:00.797Z,29.95
2023-05-11T09:26:29.950Z,28.90
2023-05-11T09:29:03.846Z,29.05
2023-05-11T09:31:40.243Z,28.58
2023-05-11T09:34:14.966Z,30.98
2023-05-11T09:36:43.073Z,30.58
2023-05-11T09:39:15.344Z,30.50
2023-05-11T09:41:43.643Z,31.20
2023-05-11T09:44:14.996Z,30.70
2023-05-11T09:46:43.894Z,30.15
2023-05-11T09:51:41.445Z,28.80
2023-05-11T09:54:26.883Z,28.60
2023-05-11T09:56:56.792Z,28.17
2023-05-11T09:59:40.665Z,27.67
2023-05-11T10:02:19.138Z,28.17
2023-05-11T10:04:47.136Z,28.50
2023-05-11T10:07:25.106Z,29.83
2023-05-11T10:09:54.812Z,27.60
2023-05-11T10:12:23.568Z,30.42
2023-05-11T10:17:23.919Z,31.33
2023-05-11T10:19:51.866Z,31.00
2023-05-11T10:22:19.793Z,31.13
2023-05-11T10:24:47.991Z,31.60
2023-05-11T10:27:15.802Z,32.22
2023-05-11T10:29:43.790Z,31.80
2023-05-11T10:32:13.077Z,31.83
2023-05-11T10:34:41.071Z,31.98
2023-05-11T10:37:09.634Z,32.38
2023-05-11T10:39:38.682Z,31.17
2023-05-11T10:42:21.304Z,29.90
2023-05-11T10:45:17.029Z,31.85
2023-05-11T10:48:23.517Z,30.17
2023-05-11T10:51:02.498Z,28.45
2023-05-11T10:53:40.211Z,28.05
2023-05-11T10:56:18.736Z,28.95
2023-05-11T10:59:02.518Z,31.33
2023-05-11T11:01:39.440Z,24.25
2023-05-11T11:04:09.050Z,26.50
2023-05-11T11:06:40.698Z,26.77
2023-05-11T11:09:12.754Z,25.73
2023-05-11T11:11:42.658Z,25.15
2023-05-11T11:14:11.518Z,26.75
2023-05-11T11:19:39.541Z,26.38
2023-05-11T11:22:44.562Z,27.55
2023-05-11T11:25:13.581Z,28.52
2023-05-11T11:28:01.504Z,28.42
2023-05-11T11:30:30.818Z,28.33
2023-05-11T11:33:32.905Z,31.17
2023-05-11T11:36:00.694Z,28.70
2023-05-11T11:38:33.213Z,27.67
2023-05-11T11:41:01.076Z,29.10
2023-05-11T11:43:34.584Z,28.85
2023-05-11T11:46:04.096Z,29.98
2023-05-11T11:48:33.370Z,26.50
2023-05-11T11:51:06.120Z,27.83
2023-05-11T11:54:08.918Z,26.67
2023-05-11T11:56:41.320Z,23.70
2023-05-11T11:59:13.873Z,24.10
2023-05-11T12:01:42.966Z,24.23
2023-05-11T12:04:33.665Z,24.35
2023-05-11T12:07:02.153Z,22.65
2023-05-11T12:09:31.427Z,24.98
2023-05-11T12:11:59.810Z,23.60
2023-05-11T12:14:27.631Z,25.08
2023-05-11T12:17:05.841Z,23.95
2023-05-11T12:19:33.589Z,24.30
2023-05-11T12:22:01.458Z,24.95
2023-05-11T12:24:29.348Z,25.13
2023-05-11T12:26:58.875Z,26.88
2023-05-11T12:29:27.066Z,25.92
2023-05-11T12:31:56.767Z,26.67
2023-05-11T12:34:24.616Z,25.63
2023-05-11T12:36:54.129Z,25.17
2023-05-11T12:39:23.746Z,27.58
2023-05-11T12:41:52.888Z,27.50
2023-05-11T12:44:23.916Z,26.20
2023-05-11T12:46:52.045Z,28.48
2023-05-11T12:51:53.217Z,27.98
2023-05-11T12:54:28.183Z,28.00
2023-05-11T12:56:56.079Z,26.42
2023-05-11T12:59:34.177Z,26.13
2023-05-11T13:02:13.245Z,27.25
2023-05-11T13:04:41.925Z,26.33
2023-05-11T13:07:10.278Z,27.23
2023-05-11T13:09:38.438Z,27.58
2023-05-11T13:12:11.149Z,27.70
2023-05-11T13:14:40.782Z,28.33
2023-05-11T13:17:08.575Z,27.15
2023-05-11T13:19:37.720Z,26.92
2023-05-11T13:22:06.014Z,27.00
2023-05-11T13:24:35.705Z,25.10
2023-05-11T13:27:03.608Z,26.23
2023-05-11T13:29:31.489Z,26.40
2023-05-11T13:32:00.781Z,27.03
2023-05-11T13:34:28.604Z,27.30
2023-05-11T13:36:56.419Z,28.42
2023-05-11T13:39:26.321Z,28.10
2023-05-11T13:41:55.759Z,29.02
2023-05-11T13:44:24.072Z,27.25
2023-05-11T13:46:51.933Z,27.37
2023-05-11T13:49:21.301Z,27.67
2023-05-11T13:51:49.048Z,26.85
2023-05-11T13:54:16.853Z,26.52
2023-05-11T13:56:44.635Z,26.42
2023-05-11T13:59:12.457Z,26.52
2023-05-11T14:01:40.385Z,23.80
2023-05-11T14:04:08.187Z,19.50
2023-05-11T14:06:37.859Z,18.58
2023-05-11T14:09:05.800Z,19.30
2023-05-11T14:11:33.599Z,18.23
2023-05-11T14:14:01.856Z,18.52
2023-05-11T14:16:29.729Z,17.45
2023-05-11T14:18:57.569Z,18.85
2023-05-11T14:21:25.392Z,18.55
2023-05-11T14:24:10.049Z,19.20
2023-05-11T14:26:39.681Z,18.67
2023-05-11T14:29:07.571Z,18.45
2023-05-11T14:31:36.151Z,18.05
2023-05-11T14:34:04.115Z,17.87
2023-05-11T14:36:32.089Z,18.25
2023-05-11T14:39:01.375Z,17.35
2023-05-11T14:41:29.167Z,17.65
2023-05-11T14:43:57.036Z,17.58
2023-05-11T14:46:26.718Z,17.45
2023-05-11T14:48:54.911Z,17.35
2023-05-11T14:51:22.741Z,17.67
2023-05-11T14:53:50.526Z,18.13
2023-05-11T14:56:19.784Z,17.83
2023-05-11T14:58:47.730Z,18.17
2023-05-11T15:01:15.598Z,17.70
2023-05-11T15:03:43.453Z,16.90
2023-05-11T15:06:11.405Z,17.88
2023-05-11T15:08:39.205Z,17.02
2023-05-11T15:11:07.081Z,17.27
2023-05-11T15:13:36.294Z,17.15
2023-05-11T15:16:04.127Z,17.35
2023-05-11T15:18:32.207Z,17.88
2023-05-11T15:21:01.796Z,16.90
2023-05-11T15:23:29.694Z,17.35
2023-05-11T15:25:58.623Z,17.73
2023-05-11T15:30:55.294Z,17.33
2023-05-11T15:33:23.145Z,18.10
2023-05-11T15:35:51.345Z,18.63
2023-05-11T15:38:19.199Z,17.65
2023-05-11T15:40:47.024Z,18.88
2023-05-11T15:43:14.990Z,17.92
2023-05-11T15:45:42.850Z,17.98
2023-05-11T15:48:12.238Z,18.55
2023-05-11T15:50:40.512Z,18.27
2023-05-11T15:53:08.333Z,18.52
2023-05-11T15:55:36.990Z,18.33
2023-05-11T15:58:07.768Z,18.52
2023-05-11T16:00:35.618Z,18.20
2023-05-11T16:03:03.618Z,17.40
2023-05-11T16:05:33.350Z,16.53
2023-05-11T16:08:01.098Z,17.88
2023-05-11T16:10:28.988Z,17.08
2023-05-11T16:12:58.725Z,16.80
2023-05-11T16:15:26.732Z,18.80
2023-05-11T16:17:54.547Z,19.65
2023-05-11T16:20:22.452Z,18.00
2023-05-11T16:22:51.728Z,18.40
2023-05-11T16:25:19.617Z,18.08
2023-05-11T16:27:47.413Z,18.73
2023-05-11T16:30:24.374Z,17.98
2023-05-11T16:32:53.608Z,18.60
2023-05-11T16:35:21.747Z,18.70
2023-05-11T16:37:51.117Z,19.13
2023-05-11T16:40:21.102Z,19.27
2023-05-11T16:42:49.298Z,18.73
2023-05-11T16:45:17.362Z,18.75
2023-05-11T16:47:46.248Z,19.13
2023-05-11T16:50:16.114Z,18.67
2023-05-11T16:52:45.182Z,19.00
2023-05-11T16:55:16.004Z,18.50
2023-05-11T16:57:44.675Z,18.27
2023-05-11T17:00:13.587Z,18.13
2023-05-11T17:02:41.762Z,17.95
2023-05-11T17:05:11.416Z,18.13
2023-05-11T17:07:39.418Z,17.77
2023-05-11T17:10:08.760Z,17.60
2023-05-11T17:12:37.948Z,18.80
2023-05-11T17:15:09.613Z,17.90
2023-05-11T17:17:38.020Z,17.55
2023-05-11T17:20:07.601Z,17.85
2023-05-11T17:22:35.898Z,17.67
2023-05-11T17:25:04.048Z,19.27
2023-05-11T17:27:32.278Z,19.67
2023-05-11T17:30:01.419Z,20.07
2023-05-11T17:34:57.672Z,17.38
2023-05-11T17:37:31.667Z,17.25
2023-05-11T17:40:00.242Z,17.05
2023-05-11T17:42:28.432Z,17.30
2023-05-11T17:44:56.629Z,17.60
2023-05-11T17:47:26.150Z,17.93
2023-05-11T17:49:54.171Z,17.25
2023-05-11T17:52:21.990Z,17.88
2023-05-11T17:54:49.868Z,18.50
2023-05-11T17:57:17.741Z,18.15
2023-05-11T17:59:47.191Z,17.67
2023-05-11T18:02:15.142Z,18.15
2023-05-11T18:04:44.364Z,18.00
2023-05-11T18:07:12.398Z,18.45
2023-05-11T18:09:40.322Z,18.52
2023-05-11T18:12:09.507Z,18.25
2023-05-11T18:17:06.597Z,19.25
2023-05-11T18:19:34.478Z,18.65
2023-05-11T18:22:04.385Z,18.95
2023-05-11T18:24:32.255Z,18.73
2023-05-11T18:27:00.287Z,19.08
2023-05-11T18:29:28.077Z,18.90
2023-05-11T18:31:56.144Z,19.50
2023-05-11T18:34:24.118Z,19.20
2023-05-11T18:36:51.980Z,19.83
2023-05-11T18:39:21.149Z,19.33
2023-05-11T18:44:18.546Z,19.73
2023-05-11T18:46:46.551Z,19.60
2023-05-11T18:49:14.357Z,19.60
2023-05-11T18:51:42.159Z,18.98
2023-05-11T18:54:10.165Z,19.50
2023-05-11T18:56:39.384Z,19.60
2023-05-11T18:59:07.731Z,19.02
2023-05-11T19:01:47.121Z,19.55
2023-05-11T19:04:19.719Z,18.52
2023-05-11T19:06:47.803Z,19.70
2023-05-11T19:09:15.688Z,19.40
2023-05-11T19:11:44.922Z,19.05
2023-05-11T19:14:14.604Z,18.98
2023-05-11T19:16:42.743Z,18.90
2023-05-11T19:19:11.442Z,19.83
2023-05-11T19:21:40.498Z,19.85
2023-05-11T19:24:08.911Z,19.05
2023-05-11T19:26:38.118Z,19.08
2023-05-11T19:31:35.449Z,19.35
2023-05-11T19:34:03.535Z,18.70
2023-05-11T19:36:31.886Z,19.23
2023-05-11T19:38:59.753Z,18.70
2023-05-11T19:41:27.901Z,18.98
2023-05-11T19:43:55.699Z,18.88
2023-05-11T19:46:24.946Z,19.02
2023-05-11T19:48:52.986Z,18.88
2023-05-11T19:51:20.830Z,19.25
2023-05-11T19:53:48.764Z,19.02
2023-05-11T19:56:16.537Z,20.17
2023-05-11T19:58:44.357Z,19.48
2023-05-11T20:01:12.189Z,19.45
2023-05-11T20:03:41.570Z,19.50
2023-05-11T20:06:09.506Z,20.23
2023-05-11T20:08:37.692Z,21.35
2023-05-11T20:11:06.808Z,20.73
2023-05-11T20:16:04.029Z,21.33
2023-05-11T20:18:31.995Z,22.20
2023-05-11T20:21:01.164Z,21.25
2023-05-11T20:25:56.507Z,22.88
2023-05-11T20:28:27.136Z,22.33
2023-05-11T20:30:56.028Z,22.95
2023-05-11T20:35:54.703Z,23.42
2023-05-11T20:38:25.549Z,24.00
2023-05-11T20:40:57.851Z,23.85
2023-05-11T20:43:27.257Z,24.25
2023-05-11T20:45:55.448Z,23.77
2023-05-11T20:48:32.379Z,23.43
2023-05-11T20:51:06.876Z,24.75
2023-05-11T20:53:36.038Z,24.98
2023-05-11T20:56:03.898Z,24.83
2023-05-11T20:58:32.148Z,25.10
2023-05-11T21:00:59.976Z,24.27
2023-05-11T21:03:28.278Z,24.73
2023-05-11T21:05:56.962Z,25.15
2023-05-11T21:08:24.736Z,25.70
2023-05-11T21:10:54.312Z,24.95
2023-05-11T21:13:22.322Z,25.80
2023-05-11T21:15:50.042Z,25.30
2023-05-11T21:18:17.986Z,25.23
2023-05-11T21:20:45.878Z,25.38
2023-05-11T21:23:14.255Z,25.67
2023-05-11T21:25:42.078Z,25.90
2023-05-11T21:28:11.304Z,26.63
2023-05-11T21:30:39.188Z,26.02
2023-05-11T21:33:07.026Z,26.45
2023-05-11T21:35:34.924Z,27.65
2023-05-11T21:38:03.206Z,26.63
2023-05-11T21:40:31.101Z,27.37
2023-05-11T21:42:58.896Z,27.58
2023-05-11T21:45:28.174Z,29.67
2023-05-11T21:47:56.203Z,27.85
2023-05-11T21:50:24.025Z,27.73
2023-05-11T21:52:51.926Z,27.73
2023-05-11T21:55:19.723Z,27.63
2023-05-11T21:57:47.506Z,28.42
2023-05-11T22:00:18.789Z,28.85
2023-05-11T22:02:48.751Z,28.30
2023-05-11T22:05:16.792Z,28.63
2023-05-11T22:07:44.962Z,27.35
2023-05-11T22:10:13.273Z,28.80
2023-05-11T22:12:41.070Z,28.67
2023-05-11T22:15:09.879Z,29.15
2023-05-11T22:17:38.136Z,28.30
2023-05-11T22:20:09.960Z,30.00
2023-05-11T22:22:38.025Z,30.48
2023-05-11T22:25:06.493Z,30.73
2023-05-11T22:27:34.273Z,28.83
2023-05-11T22:30:02.519Z,28.83
2023-05-11T22:32:31.618Z,27.80
2023-05-11T22:37:28.815Z,27.25
2023-05-11T22:39:56.595Z,29.00
2023-05-11T22:42:24.376Z,28.65
2023-05-11T22:44:52.383Z,29.15
2023-05-11T22:47:20.199Z,30.13
2023-05-11T22:49:47.930Z,30.10
2023-05-11T22:52:15.720Z,28.63
2023-05-11T22:54:44.827Z,29.27
2023-05-11T22:59:42.735Z,28.85
2023-05-11T23:02:10.599Z,28.98
2023-05-11T23:04:38.488Z,27.75
2023-05-11T23:07:07.870Z,28.08
2023-05-11T23:09:35.694Z,27.75
2023-05-11T23:12:05.653Z,27.50
2023-05-11T23:14:33.421Z,26.98
2023-05-11T23:17:01.338Z,28.25
2023-05-11T23:19:29.271Z,26.83
2023-05-11T23:21:57.734Z,26.90
2023-05-11T23:24:25.579Z,26.63
2023-05-11T23:26:53.330Z,25.40
2023-05-11T23:29:22.513Z,26.73
2023-05-11T23:34:19.644Z,23.92
2023-05-11T23:36:47.689Z,24.55
2023-05-11T23:39:15.870Z,25.80
2023-05-11T23:41:43.773Z,25.17
2023-05-11T23:44:11.744Z,23.83
2023-05-11T23:46:40.895Z,23.35
2023-05-11T23:51:36.172Z,22.83
2023-05-11T23:54:03.989Z,23.55
2023-05-11T23:56:31.715Z,22.58
2023-05-11T23:58:59.656Z,22.42
